createdAt,value
2023-05-11T00:01:04.350Z,11.38
2023-05-11T00:03:33.217Z,11.37
2023-05-11T00:06:01.329Z,11.41
2023-05-11T00:08:29.173Z,11.40
2023-05-11T00:10:57.060Z,11.43
2023-05-11T00:13:24.807Z,11.46
2023-05-11T00:15:52.688Z,11.43
2023-05-11T00:18:20.758Z,11.42
2023-05-11T00:20:48.543Z,11.41
2023-05-11T00:23:16.427Z,11.41
2023-05-11T00:25:44.287Z,11.37
2023-05-11T00:28:12.159Z,11.35
2023-05-11T00:30:43.104Z,11.37
2023-05-11T00:33:11.002Z,11.33
2023-05-11T00:35:38.796Z,11.28
2023-05-11T00:38:06.751Z,11.26
2023-05-11T00:40:34.904Z,11.27
2023-05-11T00:43:02.621Z,11.25
2023-05-11T00:45:30.484Z,11.23
2023-05-11T00:47:58.591Z,11.20
2023-05-11T00:50:26.901Z,11.21
2023-05-11T00:52:56.211Z,11.21
2023-05-11T00:55:24.782Z,11.20
2023-05-11T00:57:52.678Z,11.21
2023-05-11T01:00:20.784Z,11.20
2023-05-11T01:02:49.127Z,11.19
2023-05-11T01:05:17.131Z,11.19
2023-05-11T01:08:05.938Z,11.21
2023-05-11T01:10:50.787Z,11.19
2023-05-11T01:13:35.278Z,11.13
2023-05-11T01:16:09.571Z,11.15
2023-05-11T01:19:11.803Z,11.14
2023-05-11T01:21:40.225Z,11.12
2023-05-11T01:24:22.753Z,11.15
2023-05-11T01:27:24.937Z,11.15
2023-05-11T01:30:33.264Z,11.14
2023-05-11T01:33:07.349Z,11.16
2023-05-11T01:35:39.232Z,11.17
2023-05-11T01:38:11.924Z,11.19
2023-05-11T01:40:42.011Z,11.22
2023-05-11T01:43:22.011Z,11.22
2023-05-11T01:45:51.480Z,11.25
2023-05-11T01:48:23.350Z,11.29
2023-05-11T01:50:51.925Z,11.25
2023-05-11T01:53:20.736Z,11.30
2023-05-11T01:55:49.963Z,11.28
2023-05-11T01:58:18.744Z,11.34
2023-05-11T02:00:46.646Z,11.36
2023-05-11T02:03:15.065Z,11.37
2023-05-11T02:05:43.440Z,11.37
2023-05-11T02:08:12.204Z,11.38
2023-05-11T02:10:40.414Z,11.41
2023-05-11T02:13:10.095Z,11.37
2023-05-11T02:15:41.737Z,11.42
2023-05-11T02:18:13.648Z,11.44
2023-05-11T02:20:45.997Z,11.45
2023-05-11T02:23:14.616Z,11.48
2023-05-11T02:25:43.311Z,11.47
2023-05-11T02:28:11.130Z,11.46
2023-05-11T02:30:46.882Z,11.54
2023-05-11T02:33:22.461Z,11.59
2023-05-11T02:35:52.446Z,11.65
2023-05-11T02:38:20.585Z,11.64
2023-05-11T02:40:51.416Z,11.70
2023-05-11T02:43:25.603Z,11.71
2023-05-11T02:46:08.229Z,11.73
2023-05-11T02:48:45.210Z,11.74
2023-05-11T02:51:14.723Z,11.76
2023-05-11T02:53:49.391Z,11.78
2023-05-11T02:56:17.184Z,11.83
2023-05-11T02:58:45.213Z,11.85
2023-05-11T03:01:21.130Z,11.85
2023-05-11T03:03:49.331Z,11.87
2023-05-11T03:06:17.346Z,11.86
2023-05-11T03:08:46.086Z,11.91
2023-05-11T03:11:15.629Z,11.91
2023-05-11T03:13:43.539Z,11.93
2023-05-11T03:16:13.218Z,11.95
2023-05-11T03:18:41.460Z,11.96
2023-05-11T03:21:09.366Z,11.93
2023-05-11T03:23:37.836Z,11.95
2023-05-11T03:26:07.138Z,11.99
2023-05-11T03:28:37.488Z,11.97
2023-05-11T03:31:08.639Z,11.99
2023-05-11T03:33:39.616Z,12.05
2023-05-11T03:36:11.378Z,12.07
2023-05-11T03:38:39.585Z,12.15
2023-05-11T03:41:11.100Z,12.19
2023-05-11T03:43:39.344Z,12.25
2023-05-11T03:46:07.717Z,12.25
2023-05-11T03:48:35.678Z,12.29
2023-05-11T03:51:04.720Z,12.35
2023-05-11T03:53:32.956Z,12.45
2023-05-11T03:56:00.851Z,12.46
2023-05-11T03:58:28.965Z,12.40
2023-05-11T04:00:56.835Z,12.44
2023-05-11T04:03:26.038Z,12.47
2023-05-11T04:05:56.064Z,12.46
2023-05-11T04:08:23.921Z,12.50
2023-05-11T04:10:51.819Z,12.50
2023-05-11T04:13:19.642Z,12.57
2023-05-11T04:15:47.557Z,12.61
2023-05-11T04:18:15.487Z,12.76
2023-05-11T04:20:43.381Z,12.76
2023-05-11T04:23:11.169Z,12.67
2023-05-11T04:25:39.038Z,12.74
2023-05-11T04:28:06.804Z,12.79
2023-05-11T04:30:34.604Z,12.78
2023-05-11T04:33:03.606Z,12.95
2023-05-11T04:35:31.701Z,13.06
2023-05-11T04:38:06.324Z,13.15
2023-05-11T04:40:36.334Z,13.24
2023-05-11T04:43:04.387Z,13.20
2023-05-11T04:45:32.254Z,13.12
2023-05-11T04:48:00.295Z,13.12
2023-05-11T04:50:28.161Z,12.97
2023-05-11T04:52:56.089Z,12.83
2023-05-11T04:55:24.024Z,12.94
2023-05-11T04:57:53.874Z,13.14
2023-05-11T05:00:22.161Z,13.27
2023-05-11T05:02:51.326Z,13.55
2023-05-11T05:05:19.336Z,13.76
2023-05-11T05:07:47.321Z,13.88
2023-05-11T05:10:15.226Z,13.94
2023-05-11T05:12:43.073Z,13.92
2023-05-11T05:15:11.705Z,13.97
2023-05-11T05:17:39.768Z,14.23
2023-05-11T05:20:08.465Z,14.62
2023-05-11T05:22:36.450Z,14.84
2023-05-11T05:25:04.601Z,14.80
2023-05-11T05:27:34.894Z,14.77
2023-05-11T05:30:06.274Z,14.65
2023-05-11T05:32:35.007Z,14.58
2023-05-11T05:35:03.516Z,14.64
2023-05-11T05:37:33.008Z,14.82
2023-05-11T05:40:01.389Z,15.08
2023-05-11T05:42:32.534Z,15.36
2023-05-11T05:45:00.541Z,15.57
2023-05-11T05:47:33.641Z,15.68
2023-05-11T05:50:02.302Z,15.86
2023-05-11T05:52:32.862Z,16.17
2023-05-11T05:55:00.924Z,16.49
2023-05-11T05:57:32.726Z,16.83
2023-05-11T06:00:00.746Z,16.89
2023-05-11T06:02:31.836Z,16.71
2023-05-11T06:05:00.009Z,16.68
2023-05-11T06:07:28.324Z,16.69
2023-05-11T06:09:56.203Z,16.85
2023-05-11T06:12:24.037Z,17.07
2023-05-11T06:14:53.836Z,17.17
2023-05-11T06:17:21.749Z,17.30
2023-05-11T06:19:50.483Z,17.24
2023-05-11T06:22:23.229Z,17.15
2023-05-11T06:24:51.977Z,17.01
2023-05-11T06:27:20.959Z,17.06
2023-05-11T06:29:50.641Z,17.14
2023-05-11T06:32:18.717Z,17.37
2023-05-11T06:34:47.242Z,17.91
2023-05-11T06:37:21.247Z,18.49
2023-05-11T06:39:51.551Z,18.76
2023-05-11T06:42:19.356Z,18.92
2023-05-11T06:44:47.589Z,19.05
2023-05-11T06:47:15.868Z,18.84
2023-05-11T06:49:43.713Z,19.00
2023-05-11T06:52:11.577Z,19.07
2023-05-11T06:54:39.423Z,19.13
2023-05-11T06:57:07.901Z,18.99
2023-05-11T06:59:35.858Z,18.94
2023-05-11T07:02:03.722Z,18.91
2023-05-11T07:04:31.512Z,18.76
2023-05-11T07:06:59.376Z,18.98
2023-05-11T07:09:27.272Z,19.43
2023-05-11T07:11:55.044Z,19.70
2023-05-11T07:14:22.877Z,20.20
2023-05-11T07:16:53.132Z,20.30
2023-05-11T07:19:21.080Z,20.64
2023-05-11T07:21:48.972Z,20.66
2023-05-11T07:24:16.848Z,19.74
2023-05-11T07:26:44.830Z,19.50
2023-05-11T07:29:12.646Z,19.63
2023-05-11T07:31:40.491Z,19.57
2023-05-11T07:34:08.668Z,19.52
2023-05-11T07:36:36.564Z,19.12
2023-05-11T07:39:04.388Z,18.77
2023-05-11T07:41:32.196Z,18.65
2023-05-11T07:44:03.151Z,18.51
2023-05-11T07:46:31.125Z,18.48
2023-05-11T07:49:23.000Z,19.20
2023-05-11T07:51:59.576Z,20.04
2023-05-11T07:54:28.714Z,20.43
2023-05-11T07:56:59.132Z,20.23
2023-05-11T07:59:26.930Z,20.35
2023-05-11T08:01:54.815Z,20.63
2023-05-11T08:04:23.811Z,20.83
2023-05-11T08:06:52.026Z,20.73
2023-05-11T08:09:19.817Z,20.92
2023-05-11T08:11:47.832Z,21.20
2023-05-11T08:14:16.020Z,21.31
2023-05-11T08:16:44.059Z,21.30
2023-05-11T08:19:13.189Z,21.05
2023-05-11T08:21:41.124Z,20.68
2023-05-11T08:24:08.931Z,20.05
2023-05-11T08:26:36.916Z,19.80
2023-05-11T08:29:04.748Z,19.60
2023-05-11T08:31:32.642Z,19.70
2023-05-11T08:34:00.889Z,20.06
2023-05-11T08:36:28.826Z,20.36
2023-05-11T08:38:58.921Z,20.30
2023-05-11T08:41:27.148Z,19.82
2023-05-11T08:43:55.917Z,19.51
2023-05-11T08:46:27.213Z,19.30
2023-05-11T08:48:58.562Z,19.09
2023-05-11T08:51:28.434Z,19.09
2023-05-11T08:53:57.932Z,19.22
2023-05-11T08:56:27.869Z,19.48
2023-05-11T08:58:58.981Z,19.80
2023-05-11T09:01:29.155Z,19.68
2023-05-11T09:03:58.379Z,19.56
2023-05-11T09:06:27.120Z,19.56
2023-05-11T09:08:55.244Z,19.49
2023-05-11T09:11:23.108Z,19.19
2023-05-11T09:13:51.666Z,19.09
2023-05-11T09:16:35.599Z,19.15
2023-05-11T09:19:05.585Z,19.11
2023-05-11T09:21:34.422Z,19.16
2023-05-11T09:24:02.879Z,19.32
2023-05-11T09:26:33.857Z,19.29
2023-05-11T09:29:03.414Z,19.09
2023-05-11T09:31:44.845Z,19.02
2023-05-11T09:34:21.072Z,19.15
2023-05-11T09:36:51.718Z,19.24
2023-05-11T09:42:13.641Z,19.03
2023-05-11T09:44:44.523Z,18.80
2023-05-11T09:47:19.862Z,18.61
2023-05-11T09:49:48.112Z,18.46
2023-05-11T09:52:18.327Z,18.45
2023-05-11T09:54:50.607Z,18.40
2023-05-11T09:57:29.688Z,18.44
2023-05-11T09:59:59.507Z,18.38
2023-05-11T10:02:31.669Z,18.36
2023-05-11T10:05:01.466Z,18.30
2023-05-11T10:07:36.563Z,18.39
2023-05-11T10:10:06.460Z,18.55
2023-05-11T10:12:38.463Z,18.72
2023-05-11T10:15:08.959Z,18.85
2023-05-11T10:17:44.837Z,18.96
2023-05-11T10:20:13.237Z,19.05
2023-05-11T10:22:41.323Z,19.02
2023-05-11T10:25:10.233Z,18.96
2023-05-11T10:27:38.514Z,19.16
2023-05-11T10:30:08.788Z,19.19
2023-05-11T10:32:40.307Z,19.16
2023-05-11T10:35:09.475Z,19.09
2023-05-11T10:37:37.793Z,18.75
2023-05-11T10:40:06.623Z,18.11
2023-05-11T10:42:52.581Z,17.42
2023-05-11T10:45:25.112Z,16.81
2023-05-11T10:48:06.422Z,16.41
2023-05-11T10:51:05.732Z,16.15
2023-05-11T10:53:51.505Z,15.90
2023-05-11T10:56:35.411Z,15.43
2023-05-11T10:59:22.724Z,15.04
2023-05-11T11:01:55.189Z,14.67
2023-05-11T11:04:23.690Z,14.44
2023-05-11T11:07:07.147Z,14.38
2023-05-11T11:09:52.710Z,14.23
2023-05-11T11:12:21.612Z,14.32
2023-05-11T11:15:06.598Z,14.47
2023-05-11T11:17:37.123Z,14.61
2023-05-11T11:20:09.238Z,14.69
2023-05-11T11:22:41.653Z,14.71
2023-05-11T11:25:10.396Z,14.75
2023-05-11T11:27:41.340Z,14.84
2023-05-11T11:30:26.815Z,14.92
2023-05-11T11:33:14.938Z,15.07
2023-05-11T11:35:43.028Z,15.19
2023-05-11T11:38:12.859Z,15.31
2023-05-11T11:40:50.679Z,15.34
2023-05-11T11:43:25.182Z,15.45
2023-05-11T11:45:53.357Z,15.52
2023-05-11T11:48:42.618Z,15.57
2023-05-11T11:51:11.868Z,15.54
2023-05-11T11:53:41.097Z,15.64
2023-05-11T11:56:28.929Z,15.50
2023-05-11T11:59:01.032Z,15.50
2023-05-11T12:01:35.158Z,15.53
2023-05-11T12:04:06.060Z,15.50
2023-05-11T12:06:40.621Z,15.58
2023-05-11T12:09:08.621Z,15.76
2023-05-11T12:11:37.856Z,15.92
2023-05-11T12:14:06.623Z,16.07
2023-05-11T12:16:34.390Z,16.25
2023-05-11T12:19:03.025Z,16.39
2023-05-11T12:21:32.409Z,16.48
2023-05-11T12:24:05.196Z,16.49
2023-05-11T12:26:34.530Z,16.47
2023-05-11T12:29:10.989Z,16.63
2023-05-11T12:31:39.958Z,16.72
2023-05-11T12:34:14.969Z,16.68
2023-05-11T12:36:44.188Z,16.58
2023-05-11T12:39:22.441Z,16.57
2023-05-11T12:41:51.686Z,16.51
2023-05-11T12:44:21.035Z,16.51
2023-05-11T12:46:50.149Z,16.50
2023-05-11T12:49:26.220Z,16.37
2023-05-11T12:52:09.584Z,16.24
2023-05-11T12:54:41.912Z,16.42
2023-05-11T12:57:26.578Z,16.62
2023-05-11T13:00:14.886Z,16.72
2023-05-11T13:02:52.318Z,16.78
2023-05-11T13:05:30.016Z,16.84
2023-05-11T13:08:04.966Z,17.02
2023-05-11T13:10:32.817Z,17.06
2023-05-11T13:13:00.602Z,17.15
2023-05-11T13:15:28.839Z,17.20
2023-05-11T13:17:59.918Z,17.27
2023-05-11T13:20:31.723Z,17.33
2023-05-11T13:23:22.167Z,17.48
2023-05-11T13:25:54.201Z,17.57
2023-05-11T13:28:24.420Z,17.38
2023-05-11T13:31:00.425Z,17.09
2023-05-11T13:33:28.435Z,16.90
2023-05-11T13:35:56.250Z,16.51
2023-05-11T13:38:24.039Z,16.18
2023-05-11T13:40:51.961Z,16.08
2023-05-11T13:43:19.703Z,16.03
2023-05-11T13:45:47.458Z,15.90
2023-05-11T13:48:15.298Z,15.94
2023-05-11T13:50:43.128Z,15.90
2023-05-11T13:53:12.976Z,15.86
2023-05-11T13:55:44.571Z,15.82
2023-05-11T13:58:12.434Z,15.79
2023-05-11T14:00:40.452Z,15.73
2023-05-11T14:03:08.397Z,15.72
2023-05-11T14:05:38.526Z,15.62
2023-05-11T14:08:07.221Z,15.65
2023-05-11T14:10:35.064Z,15.54
2023-05-11T14:13:02.970Z,15.58
2023-05-11T14:15:30.710Z,15.58
2023-05-11T14:17:58.676Z,15.58
2023-05-11T14:20:26.881Z,15.56
2023-05-11T14:22:54.860Z,15.62
2023-05-11T14:25:22.747Z,15.58
2023-05-11T14:27:54.505Z,15.58
2023-05-11T14:30:22.363Z,15.63
2023-05-11T14:32:52.727Z,15.65
2023-05-11T14:35:21.400Z,15.63
2023-05-11T14:37:49.414Z,15.65
2023-05-11T14:40:17.187Z,15.67
2023-05-11T14:42:45.039Z,15.77
2023-05-11T14:45:12.907Z,15.77
2023-05-11T14:47:41.008Z,15.83
2023-05-11T14:50:09.728Z,15.80
2023-05-11T14:52:41.035Z,15.81
2023-05-11T14:55:09.193Z,15.86
2023-05-11T14:57:37.003Z,15.86
2023-05-11T15:00:05.366Z,15.88
2023-05-11T15:02:36.826Z,15.85
2023-05-11T15:05:06.317Z,15.84
2023-05-11T15:07:34.460Z,15.83
2023-05-11T15:10:02.563Z,15.82
2023-05-11T15:12:32.664Z,15.77
2023-05-11T15:15:00.875Z,15.73
2023-05-11T15:17:31.224Z,15.66
2023-05-11T15:19:59.066Z,15.63
2023-05-11T15:22:26.887Z,15.59
2023-05-11T15:24:54.675Z,15.47
2023-05-11T15:27:22.533Z,15.43
2023-05-11T15:29:50.461Z,15.35
2023-05-11T15:32:18.338Z,15.40
2023-05-11T15:34:58.437Z,15.36
2023-05-11T15:37:28.608Z,15.38
2023-05-11T15:39:56.594Z,15.35
2023-05-11T15:42:24.582Z,15.35
2023-05-11T15:44:52.514Z,15.32
2023-05-11T15:47:20.690Z,15.30
2023-05-11T15:49:48.488Z,15.32
2023-05-11T15:52:16.412Z,15.32
2023-05-11T15:54:44.159Z,15.26
2023-05-11T15:57:12.228Z,15.28
2023-05-11T15:59:40.040Z,15.24
2023-05-11T16:02:07.921Z,15.23
2023-05-11T16:04:35.926Z,15.20
2023-05-11T16:07:04.573Z,15.20
2023-05-11T16:09:34.940Z,15.21
2023-05-11T16:12:03.232Z,15.26
2023-05-11T16:14:31.107Z,15.25
2023-05-11T16:17:01.146Z,15.28
2023-05-11T16:19:30.246Z,15.29
2023-05-11T16:21:58.026Z,15.38
2023-05-11T16:24:25.932Z,15.41
2023-05-11T16:26:53.836Z,15.45
2023-05-11T16:29:21.692Z,15.42
2023-05-11T16:31:49.491Z,15.38
2023-05-11T16:34:18.180Z,15.29
2023-05-11T16:36:46.250Z,15.15
2023-05-11T16:39:13.984Z,15.02
2023-05-11T16:41:41.870Z,14.85
2023-05-11T16:44:09.668Z,14.66
2023-05-11T16:46:37.592Z,14.48
2023-05-11T16:49:05.565Z,14.35
2023-05-11T16:51:34.312Z,14.24
2023-05-11T16:54:02.130Z,14.21
2023-05-11T16:56:29.920Z,14.12
2023-05-11T16:58:57.980Z,14.06
2023-05-11T17:01:26.055Z,13.99
2023-05-11T17:03:54.579Z,13.93
2023-05-11T17:06:24.068Z,13.85
2023-05-11T17:08:53.084Z,13.80
2023-05-11T17:11:21.762Z,13.75
2023-05-11T17:13:49.667Z,13.64
2023-05-11T17:16:17.729Z,13.59
2023-05-11T17:18:46.589Z,13.51
2023-05-11T17:21:14.449Z,13.45
2023-05-11T17:23:43.614Z,13.39
2023-05-11T17:26:14.833Z,13.31
2023-05-11T17:28:42.726Z,13.22
2023-05-11T17:31:12.208Z,13.13
2023-05-11T17:33:41.746Z,13.03
2023-05-11T17:36:09.982Z,12.91
2023-05-11T17:38:38.649Z,12.75
2023-05-11T17:41:06.484Z,12.60
2023-05-11T17:43:35.604Z,12.40
2023-05-11T17:46:06.848Z,12.30
2023-05-11T17:48:34.753Z,12.19
2023-05-11T17:51:02.677Z,12.10
2023-05-11T17:53:30.871Z,11.99
2023-05-11T17:55:59.949Z,11.87
2023-05-11T17:58:27.843Z,11.77
2023-05-11T18:00:55.625Z,11.69
2023-05-11T18:03:23.589Z,11.67
2023-05-11T18:05:51.510Z,11.58
2023-05-11T18:08:19.257Z,11.46
2023-05-11T18:10:47.188Z,11.41
2023-05-11T18:13:17.297Z,11.29
2023-05-11T18:15:45.700Z,11.29
2023-05-11T18:18:14.041Z,11.24
2023-05-11T18:20:45.550Z,11.20
2023-05-11T18:23:14.244Z,11.12
2023-05-11T18:25:42.488Z,11.13
2023-05-11T18:28:10.318Z,11.09
2023-05-11T18:30:39.089Z,11.07
2023-05-11T18:33:06.954Z,11.05
2023-05-11T18:35:34.834Z,11.01
2023-05-11T18:38:04.989Z,11.02
2023-05-11T18:40:32.996Z,11.08
2023-05-11T18:43:01.715Z,11.04
2023-05-11T18:45:30.722Z,11.03
2023-05-11T18:47:58.885Z,11.03
2023-05-11T18:50:29.810Z,11.05
2023-05-11T18:52:57.811Z,11.03
2023-05-11T18:55:38.142Z,11.10
2023-05-11T18:58:13.246Z,11.09
2023-05-11T19:00:41.251Z,11.08
2023-05-11T19:03:09.834Z,11.09
2023-05-11T19:05:37.983Z,11.10
2023-05-11T19:08:06.812Z,11.08
2023-05-11T19:10:38.091Z,11.06
2023-05-11T19:13:07.241Z,11.00
2023-05-11T19:15:35.250Z,10.91
2023-05-11T19:18:03.372Z,10.93
2023-05-11T19:20:31.737Z,10.86
2023-05-11T19:23:00.687Z,10.85
2023-05-11T19:25:28.672Z,10.77
2023-05-11T19:28:00.013Z,10.79
2023-05-11T19:30:34.486Z,10.80
2023-05-11T19:33:02.501Z,10.80
2023-05-11T19:35:30.806Z,10.80
2023-05-11T19:37:59.024Z,10.78
2023-05-11T19:43:01.246Z,10.85
2023-05-11T19:45:32.920Z,10.93
2023-05-11T19:48:00.863Z,10.98
2023-05-11T19:50:28.989Z,11.10
2023-05-11T19:52:57.161Z,11.13
2023-05-11T19:55:25.135Z,11.16
2023-05-11T19:57:53.085Z,11.21
2023-05-11T20:00:25.198Z,11.25
2023-05-11T20:02:53.978Z,11.21
2023-05-11T20:05:24.715Z,11.27
2023-05-11T20:07:53.899Z,11.35
2023-05-11T20:10:21.990Z,11.22
2023-05-11T20:12:51.318Z,11.35
2023-05-11T20:15:19.653Z,11.42
2023-05-11T20:17:47.585Z,11.35
2023-05-11T20:20:15.505Z,11.42
2023-05-11T20:22:43.276Z,11.43
2023-05-11T20:25:17.993Z,11.38
2023-05-11T20:27:49.269Z,11.46
2023-05-11T20:30:19.936Z,11.44
2023-05-11T20:35:21.139Z,11.45
2023-05-11T20:37:49.129Z,11.47
2023-05-11T20:40:17.491Z,11.46
2023-05-11T20:42:48.141Z,11.47
2023-05-11T20:45:16.274Z,11.40
2023-05-11T20:47:44.365Z,11.44
2023-05-11T20:50:14.424Z,11.50
2023-05-11T20:52:51.104Z,11.46
2023-05-11T20:55:20.604Z,11.39
2023-05-11T20:57:56.014Z,11.35
2023-05-11T21:00:26.049Z,11.30
2023-05-11T21:02:56.774Z,11.32
2023-05-11T21:05:27.575Z,11.19
2023-05-11T21:07:56.011Z,11.15
2023-05-11T21:10:24.569Z,11.15
2023-05-11T21:12:53.105Z,11.09
2023-05-11T21:15:21.149Z,11.09
2023-05-11T21:17:49.197Z,11.04
2023-05-11T21:20:20.157Z,10.98
2023-05-11T21:22:48.259Z,10.96
2023-05-11T21:25:25.857Z,10.97
2023-05-11T21:27:53.857Z,10.97
2023-05-11T21:30:21.709Z,10.97
2023-05-11T21:32:50.876Z,10.99
2023-05-11T21:35:18.850Z,10.99
2023-05-11T21:37:49.693Z,10.99
2023-05-11T21:40:18.324Z,11.03
2023-05-11T21:42:48.911Z,11.02
2023-05-11T21:45:16.916Z,11.07
2023-05-11T21:47:44.811Z,11.10
2023-05-11T21:50:12.924Z,11.15
2023-05-11T21:52:40.759Z,11.17
2023-05-11T21:55:09.184Z,11.24
2023-05-11T21:57:37.419Z,11.25
2023-05-11T22:00:08.397Z,11.26
2023-05-11T22:02:38.312Z,11.30
2023-05-11T22:05:09.489Z,11.26
2023-05-11T22:07:37.484Z,11.28
2023-05-11T22:10:08.155Z,11.28
2023-05-11T22:12:37.075Z,11.27
2023-05-11T22:15:08.442Z,11.24
2023-05-11T22:17:37.087Z,11.20
2023-05-11T22:20:06.606Z,11.16
2023-05-11T22:22:35.097Z,11.12
2023-05-11T22:25:03.523Z,11.10
2023-05-11T22:27:32.533Z,11.08
2023-05-11T22:30:00.449Z,11.09
2023-05-11T22:32:28.691Z,11.10
2023-05-11T22:34:58.573Z,11.14
2023-05-11T22:37:27.400Z,11.14
2023-05-11T22:39:55.346Z,11.12
2023-05-11T22:42:23.442Z,11.14
2023-05-11T22:44:51.460Z,11.12
2023-05-11T22:47:19.340Z,11.12
2023-05-11T22:49:47.520Z,11.11
2023-05-11T22:52:15.356Z,11.13
2023-05-11T22:54:43.213Z,11.14
2023-05-11T22:57:13.599Z,11.17
2023-05-11T22:59:41.512Z,11.16
2023-05-11T23:02:09.416Z,11.16
2023-05-11T23:04:37.198Z,11.18
2023-05-11T23:07:07.932Z,11.21
2023-05-11T23:09:35.761Z,11.19
2023-05-11T23:12:03.780Z,11.27
2023-05-11T23:14:31.773Z,11.35
2023-05-11T23:16:59.625Z,11.36
2023-05-11T23:19:27.502Z,11.39
2023-05-11T23:21:55.502Z,11.46
2023-05-11T23:24:23.315Z,11.46
2023-05-11T23:26:51.052Z,11.53
2023-05-11T23:29:18.868Z,11.57
2023-05-11T23:31:46.789Z,11.58
2023-05-11T23:34:15.017Z,11.56
2023-05-11T23:36:42.912Z,11.52
2023-05-11T23:39:10.857Z,11.49
2023-05-11T23:41:38.673Z,11.45
2023-05-11T23:44:06.841Z,11.44
2023-05-11T23:46:34.638Z,11.40
2023-05-11T23:49:02.397Z,11.37
2023-05-11T23:51:30.229Z,11.30
2023-05-11T23:53:58.072Z,11.26
2023-05-11T23:56:25.998Z,11.23
2023-05-11T23:58:54.472Z,11.15
